sensor_id;sensor_type;location;lat;lon;timestamp;P1;durP1;ratioP1;P2;durP2;ratioP2
63534;SDS011;55128;50.230;18.944;2022-09-09T00:05:08;8.73;;;7.82;;
63534;SDS011;55128;50.230;18.944;2022-09-09T00:15:25;7.95;;;7.22;;
63534;SDS011;55128;50.230;18.944;2022-09-09T00:20:53;8.57;;;7.60;;
63534;SDS011;55128;50.230;18.944;2022-09-09T00:31:13;8.45;;;7.68;;
63534;SDS011;55128;50.230;18.944;2022-09-09T00:36:18;8.13;;;7.32;;
63534;SDS011;55128;50.230;18.944;2022-09-09T00:47:21;8.85;;;8.05;;
63534;SDS011;55128;50.230;18.944;2022-09-09T00:52:30;9.18;;;7.60;;
63534;SDS011;55128;50.230;18.944;2022-09-09T00:57:36;9.52;;;8.50;;
63534;SDS011;55128;50.230;18.944;2022-09-09T01:02:39;10.10;;;8.52;;
63534;SDS011;55128;50.230;18.944;2022-09-09T01:07:45;9.45;;;8.55;;
63534;SDS011;55128;50.230;18.944;2022-09-09T01:12:48;9.55;;;8.63;;
63534;SDS011;55128;50.230;18.944;2022-09-09T01:23:15;10.40;;;9.38;;
63534;SDS011;55128;50.230;18.944;2022-09-09T01:28:21;11.63;;;10.43;;
63534;SDS011;55128;50.230;18.944;2022-09-09T01:33:25;11.00;;;10.00;;
63534;SDS011;55128;50.230;18.944;2022-09-09T01:38:26;10.15;;;9.13;;
63534;SDS011;55128;50.230;18.944;2022-09-09T01:43:29;10.20;;;9.20;;
63534;SDS011;55128;50.230;18.944;2022-09-09T01:48:30;9.90;;;8.90;;
63534;SDS011;55128;50.230;18.944;2022-09-09T01:53:31;10.07;;;8.95;;
63534;SDS011;55128;50.230;18.944;2022-09-09T02:03:52;12.52;;;10.93;;
63534;SDS011;55128;50.230;18.944;2022-09-09T02:08:56;12.57;;;11.38;;
63534;SDS011;55128;50.230;18.944;2022-09-09T02:14:04;11.48;;;10.38;;
63534;SDS011;55128;50.230;18.944;2022-09-09T02:19:16;10.32;;;9.43;;
63534;SDS011;55128;50.230;18.944;2022-09-09T02:24:33;10.43;;;8.75;;
63534;SDS011;55128;50.230;18.944;2022-09-09T02:29:41;10.02;;;9.02;;
63534;SDS011;55128;50.230;18.944;2022-09-09T02:34:43;10.60;;;9.60;;
63534;SDS011;55128;50.230;18.944;2022-09-09T02:39:48;11.70;;;10.60;;
63534;SDS011;55128;50.230;18.944;2022-09-09T02:44:49;12.20;;;11.00;;
63534;SDS011;55128;50.230;18.944;2022-09-09T02:50:02;12.95;;;11.75;;
63534;SDS011;55128;50.230;18.944;2022-09-09T02:55:14;12.30;;;11.13;;
63534;SDS011;55128;50.230;18.944;2022-09-09T03:00:37;12.52;;;11.23;;
63534;SDS011;55128;50.230;18.944;2022-09-09T03:05:39;13.13;;;11.77;;
63534;SDS011;55128;50.230;18.944;2022-09-09T03:10:40;13.25;;;11.95;;
63534;SDS011;55128;50.230;18.944;2022-09-09T03:15:41;15.93;;;13.38;;
63534;SDS011;55128;50.230;18.944;2022-09-09T03:20:42;14.52;;;13.13;;
63534;SDS011;55128;50.230;18.944;2022-09-09T03:25:46;14.75;;;13.40;;
63534;SDS011;55128;50.230;18.944;2022-09-09T03:30:48;12.30;;;11.15;;
63534;SDS011;55128;50.230;18.944;2022-09-09T03:35:49;11.13;;;10.02;;
63534;SDS011;55128;50.230;18.944;2022-09-09T03:40:50;11.15;;;10.15;;
63534;SDS011;55128;50.230;18.944;2022-09-09T03:45:53;12.82;;;10.35;;
63534;SDS011;55128;50.230;18.944;2022-09-09T03:50:56;12.93;;;11.63;;
63534;SDS011;55128;50.230;18.944;2022-09-09T03:56:01;11.70;;;10.63;;
63534;SDS011;55128;50.230;18.944;2022-09-09T04:01:03;11.02;;;9.93;;
63534;SDS011;55128;50.230;18.944;2022-09-09T04:06:09;11.15;;;10.00;;
63534;SDS011;55128;50.230;18.944;2022-09-09T04:11:13;12.95;;;9.93;;
63534;SDS011;55128;50.230;18.944;2022-09-09T04:16:14;12.38;;;9.73;;
63534;SDS011;55128;50.230;18.944;2022-09-09T04:21:15;12.80;;;11.60;;
63534;SDS011;55128;50.230;18.944;2022-09-09T04:26:17;16.55;;;10.93;;
63534;SDS011;55128;50.230;18.944;2022-09-09T04:31:21;11.38;;;10.18;;
63534;SDS011;55128;50.230;18.944;2022-09-09T04:36:23;10.95;;;9.95;;
63534;SDS011;55128;50.230;18.944;2022-09-09T04:41:24;11.95;;;10.73;;
63534;SDS011;55128;50.230;18.944;2022-09-09T04:46:24;12.43;;;11.30;;
63534;SDS011;55128;50.230;18.944;2022-09-09T04:51:25;12.30;;;11.00;;
63534;SDS011;55128;50.230;18.944;2022-09-09T04:56:26;13.23;;;11.98;;
63534;SDS011;55128;50.230;18.944;2022-09-09T05:01:29;15.13;;;13.63;;
63534;SDS011;55128;50.230;18.944;2022-09-09T05:06:30;14.55;;;13.02;;
63534;SDS011;55128;50.230;18.944;2022-09-09T05:11:32;13.80;;;12.45;;
63534;SDS011;55128;50.230;18.944;2022-09-09T05:16:36;12.95;;;11.85;;
63534;SDS011;55128;50.230;18.944;2022-09-09T05:21:36;12.20;;;11.10;;
63534;SDS011;55128;50.230;18.944;2022-09-09T05:26:37;10.00;;;9.20;;
63534;SDS011;55128;50.230;18.944;2022-09-09T05:31:37;9.00;;;8.20;;
63534;SDS011;55128;50.230;18.944;2022-09-09T05:36:39;8.55;;;7.82;;
63534;SDS011;55128;50.230;18.944;2022-09-09T05:41:39;7.50;;;6.90;;
63534;SDS011;55128;50.230;18.944;2022-09-09T05:46:40;9.50;;;8.60;;
63534;SDS011;55128;50.230;18.944;2022-09-09T05:51:40;8.48;;;7.40;;
63534;SDS011;55128;50.230;18.944;2022-09-09T05:56:42;7.93;;;7.20;;
63534;SDS011;55128;50.230;18.944;2022-09-09T06:01:43;7.28;;;6.57;;
63534;SDS011;55128;50.230;18.944;2022-09-09T06:06:45;6.20;;;5.57;;
63534;SDS011;55128;50.230;18.944;2022-09-09T06:11:45;5.47;;;4.65;;
63534;SDS011;55128;50.230;18.944;2022-09-09T06:16:46;4.85;;;4.10;;
63534;SDS011;55128;50.230;18.944;2022-09-09T06:21:46;4.00;;;3.60;;
63534;SDS011;55128;50.230;18.944;2022-09-09T06:26:47;4.30;;;3.58;;
63534;SDS011;55128;50.230;18.944;2022-09-09T06:31:48;3.55;;;3.22;;
63534;SDS011;55128;50.230;18.944;2022-09-09T06:36:49;3.17;;;2.72;;
63534;SDS011;55128;50.230;18.944;2022-09-09T06:41:49;4.57;;;3.07;;
63534;SDS011;55128;50.230;18.944;2022-09-09T06:46:53;3.28;;;2.33;;
63534;SDS011;55128;50.230;18.944;2022-09-09T06:51:53;4.07;;;2.57;;
63534;SDS011;55128;50.230;18.944;2022-09-09T06:56:54;5.32;;;2.83;;
63534;SDS011;55128;50.230;18.944;2022-09-09T07:01:55;2.90;;;2.27;;
63534;SDS011;55128;50.230;18.944;2022-09-09T07:06:56;4.78;;;2.53;;
63534;SDS011;55128;50.230;18.944;2022-09-09T07:11:58;4.03;;;2.15;;
63534;SDS011;55128;50.230;18.944;2022-09-09T07:16:59;4.32;;;3.50;;
63534;SDS011;55128;50.230;18.944;2022-09-09T07:22:00;5.43;;;2.50;;
63534;SDS011;55128;50.230;18.944;2022-09-09T07:27:02;3.45;;;2.28;;
63534;SDS011;55128;50.230;18.944;2022-09-09T07:32:03;3.28;;;1.90;;
63534;SDS011;55128;50.230;18.944;2022-09-09T07:37:04;4.18;;;1.80;;
63534;SDS011;55128;50.230;18.944;2022-09-09T07:42:05;4.90;;;2.30;;
63534;SDS011;55128;50.230;18.944;2022-09-09T07:47:06;3.95;;;2.30;;
63534;SDS011;55128;50.230;18.944;2022-09-09T08:02:08;2.55;;;1.52;;
63534;SDS011;55128;50.230;18.944;2022-09-09T08:07:09;2.60;;;1.30;;
63534;SDS011;55128;50.230;18.944;2022-09-09T08:12:10;2.53;;;1.38;;
63534;SDS011;55128;50.230;18.944;2022-09-09T08:17:13;2.65;;;1.30;;
63534;SDS011;55128;50.230;18.944;2022-09-09T08:27:13;2.73;;;1.87;;
63534;SDS011;55128;50.230;18.944;2022-09-09T08:32:14;5.50;;;1.60;;
63534;SDS011;55128;50.230;18.944;2022-09-09T08:37:16;3.10;;;1.50;;
63534;SDS011;55128;50.230;18.944;2022-09-09T08:42:22;4.30;;;1.80;;
63534;SDS011;55128;50.230;18.944;2022-09-09T08:57:51;3.25;;;1.55;;
63534;SDS011;55128;50.230;18.944;2022-09-09T09:18:43;3.38;;;1.50;;
63534;SDS011;55128;50.230;18.944;2022-09-09T09:28:58;2.15;;;1.23;;
63534;SDS011;55128;50.230;18.944;2022-09-09T09:34:01;2.38;;;1.00;;
63534;SDS011;55128;50.230;18.944;2022-09-09T09:39:03;1.83;;;1.20;;
63534;SDS011;55128;50.230;18.944;2022-09-09T09:44:05;2.08;;;1.13;;
63534;SDS011;55128;50.230;18.944;2022-09-09T09:49:21;2.28;;;1.30;;
63534;SDS011;55128;50.230;18.944;2022-09-09T09:54:23;3.33;;;1.23;;
63534;SDS011;55128;50.230;18.944;2022-09-09T09:59:35;4.75;;;1.42;;
63534;SDS011;55128;50.230;18.944;2022-09-09T10:04:39;4.03;;;1.27;;
63534;SDS011;55128;50.230;18.944;2022-09-09T10:09:39;1.85;;;1.13;;
63534;SDS011;55128;50.230;18.944;2022-09-09T10:14:44;2.90;;;1.45;;
63534;SDS011;55128;50.230;18.944;2022-09-09T10:20:10;2.78;;;1.20;;
63534;SDS011;55128;50.230;18.944;2022-09-09T10:30:59;4.55;;;1.73;;
63534;SDS011;55128;50.230;18.944;2022-09-09T10:56:34;3.53;;;1.15;;
63534;SDS011;55128;50.230;18.944;2022-09-09T11:07:40;4.43;;;1.70;;
63534;SDS011;55128;50.230;18.944;2022-09-09T11:12:46;3.28;;;0.70;;
63534;SDS011;55128;50.230;18.944;2022-09-09T11:17:52;2.28;;;0.90;;
63534;SDS011;55128;50.230;18.944;2022-09-09T11:23:01;1.92;;;1.25;;
63534;SDS011;55128;50.230;18.944;2022-09-09T11:38:45;2.85;;;1.13;;
63534;SDS011;55128;50.230;18.944;2022-09-09T11:43:48;1.75;;;1.10;;
63534;SDS011;55128;50.230;18.944;2022-09-09T11:49:00;2.92;;;1.20;;
63534;SDS011;55128;50.230;18.944;2022-09-09T11:54:25;2.25;;;0.98;;
63534;SDS011;55128;50.230;18.944;2022-09-09T11:59:39;1.80;;;0.80;;
63534;SDS011;55128;50.230;18.944;2022-09-09T12:05:06;1.65;;;0.90;;
63534;SDS011;55128;50.230;18.944;2022-09-09T12:15:25;1.55;;;0.68;;
63534;SDS011;55128;50.230;18.944;2022-09-09T12:20:38;1.83;;;0.75;;
63534;SDS011;55128;50.230;18.944;2022-09-09T12:41:24;2.28;;;0.80;;
63534;SDS011;55128;50.230;18.944;2022-09-09T12:46:34;2.75;;;1.00;;
63534;SDS011;55128;50.230;18.944;2022-09-09T12:51:39;2.25;;;0.88;;
63534;SDS011;55128;50.230;18.944;2022-09-09T12:56:45;1.95;;;0.95;;
63534;SDS011;55128;50.230;18.944;2022-09-09T13:01:54;1.77;;;1.00;;
63534;SDS011;55128;50.230;18.944;2022-09-09T13:07:05;1.27;;;0.60;;
63534;SDS011;55128;50.230;18.944;2022-09-09T13:12:16;2.70;;;0.93;;
63534;SDS011;55128;50.230;18.944;2022-09-09T13:17:24;1.65;;;0.90;;
63534;SDS011;55128;50.230;18.944;2022-09-09T13:22:31;2.38;;;0.88;;
63534;SDS011;55128;50.230;18.944;2022-09-09T13:27:36;1.83;;;0.90;;
63534;SDS011;55128;50.230;18.944;2022-09-09T13:32:38;1.10;;;0.80;;
63534;SDS011;55128;50.230;18.944;2022-09-09T13:37:39;3.47;;;1.10;;
63534;SDS011;55128;50.230;18.944;2022-09-09T13:42:43;2.55;;;1.00;;
63534;SDS011;55128;50.230;18.944;2022-09-09T13:47:45;2.28;;;1.10;;
63534;SDS011;55128;50.230;18.944;2022-09-09T13:52:46;2.95;;;1.10;;
63534;SDS011;55128;50.230;18.944;2022-09-09T14:03:00;1.98;;;1.00;;
63534;SDS011;55128;50.230;18.944;2022-09-09T14:08:04;1.80;;;1.17;;
63534;SDS011;55128;50.230;18.944;2022-09-09T14:13:06;1.25;;;0.73;;
63534;SDS011;55128;50.230;18.944;2022-09-09T14:18:09;2.33;;;1.17;;
63534;SDS011;55128;50.230;18.944;2022-09-09T14:28:13;2.22;;;1.00;;
63534;SDS011;55128;50.230;18.944;2022-09-09T14:33:15;1.73;;;1.08;;
63534;SDS011;55128;50.230;18.944;2022-09-09T14:38:17;2.15;;;1.10;;
63534;SDS011;55128;50.230;18.944;2022-09-09T14:43:18;2.65;;;1.20;;
63534;SDS011;55128;50.230;18.944;2022-09-09T14:48:18;1.95;;;1.10;;
63534;SDS011;55128;50.230;18.944;2022-09-09T14:53:19;2.33;;;1.23;;
63534;SDS011;55128;50.230;18.944;2022-09-09T14:58:20;3.28;;;1.25;;
63534;SDS011;55128;50.230;18.944;2022-09-09T15:03:21;2.92;;;2.03;;
63534;SDS011;55128;50.230;18.944;2022-09-09T15:08:23;10.68;;;8.40;;
63534;SDS011;55128;50.230;18.944;2022-09-09T15:13:24;14.55;;;8.18;;
63534;SDS011;55128;50.230;18.944;2022-09-09T15:18:25;15.05;;;10.45;;
63534;SDS011;55128;50.230;18.944;2022-09-09T15:23:26;6.00;;;2.97;;
63534;SDS011;55128;50.230;18.944;2022-09-09T15:28:27;12.23;;;8.70;;
63534;SDS011;55128;50.230;18.944;2022-09-09T15:33:28;2.83;;;1.50;;
63534;SDS011;55128;50.230;18.944;2022-09-09T15:38:30;1.90;;;0.93;;
63534;SDS011;55128;50.230;18.944;2022-09-09T15:43:31;2.00;;;1.30;;
63534;SDS011;55128;50.230;18.944;2022-09-09T15:48:31;4.68;;;3.10;;
63534;SDS011;55128;50.230;18.944;2022-09-09T15:53:32;4.40;;;3.05;;
63534;SDS011;55128;50.230;18.944;2022-09-09T15:58:34;4.57;;;2.20;;
63534;SDS011;55128;50.230;18.944;2022-09-09T16:03:36;3.10;;;1.50;;
63534;SDS011;55128;50.230;18.944;2022-09-09T16:08:39;2.33;;;1.60;;
63534;SDS011;55128;50.230;18.944;2022-09-09T16:13:42;3.78;;;2.72;;
63534;SDS011;55128;50.230;18.944;2022-09-09T16:18:45;2.87;;;1.87;;
63534;SDS011;55128;50.230;18.944;2022-09-09T16:23:48;4.03;;;1.90;;
63534;SDS011;55128;50.230;18.944;2022-09-09T16:28:50;3.57;;;1.87;;
63534;SDS011;55128;50.230;18.944;2022-09-09T16:33:51;3.20;;;2.03;;
63534;SDS011;55128;50.230;18.944;2022-09-09T16:38:52;3.17;;;1.90;;
63534;SDS011;55128;50.230;18.944;2022-09-09T16:44:05;3.85;;;2.00;;
63534;SDS011;55128;50.230;18.944;2022-09-09T16:49:08;3.67;;;2.10;;
63534;SDS011;55128;50.230;18.944;2022-09-09T16:54:10;3.60;;;2.80;;
63534;SDS011;55128;50.230;18.944;2022-09-09T16:59:13;3.40;;;1.77;;
63534;SDS011;55128;50.230;18.944;2022-09-09T17:04:16;9.77;;;4.82;;
63534;SDS011;55128;50.230;18.944;2022-09-09T17:09:24;3.25;;;1.92;;
63534;SDS011;55128;50.230;18.944;2022-09-09T17:14:28;5.20;;;2.38;;
63534;SDS011;55128;50.230;18.944;2022-09-09T17:19:31;3.78;;;2.10;;
63534;SDS011;55128;50.230;18.944;2022-09-09T17:24:31;3.47;;;2.40;;
63534;SDS011;55128;50.230;18.944;2022-09-09T17:29:33;3.38;;;2.28;;
63534;SDS011;55128;50.230;18.944;2022-09-09T17:34:35;7.85;;;3.40;;
63534;SDS011;55128;50.230;18.944;2022-09-09T17:39:36;5.45;;;2.15;;
63534;SDS011;55128;50.230;18.944;2022-09-09T17:44:37;2.95;;;2.05;;
63534;SDS011;55128;50.230;18.944;2022-09-09T17:49:38;6.57;;;2.72;;
63534;SDS011;55128;50.230;18.944;2022-09-09T17:54:39;5.13;;;2.20;;
63534;SDS011;55128;50.230;18.944;2022-09-09T17:59:41;4.75;;;2.58;;
63534;SDS011;55128;50.230;18.944;2022-09-09T18:04:41;6.45;;;2.88;;
63534;SDS011;55128;50.230;18.944;2022-09-09T18:09:42;6.75;;;2.85;;
63534;SDS011;55128;50.230;18.944;2022-09-09T18:14:43;7.60;;;5.20;;
63534;SDS011;55128;50.230;18.944;2022-09-09T18:19:43;10.90;;;5.93;;
63534;SDS011;55128;50.230;18.944;2022-09-09T18:24:45;6.47;;;3.60;;
63534;SDS011;55128;50.230;18.944;2022-09-09T18:29:47;7.50;;;3.70;;
63534;SDS011;55128;50.230;18.944;2022-09-09T18:34:48;6.30;;;3.17;;
63534;SDS011;55128;50.230;18.944;2022-09-09T18:39:49;8.02;;;3.28;;
63534;SDS011;55128;50.230;18.944;2022-09-09T18:44:50;5.97;;;2.90;;
63534;SDS011;55128;50.230;18.944;2022-09-09T18:49:51;5.68;;;3.70;;
63534;SDS011;55128;50.230;18.944;2022-09-09T18:54:51;5.28;;;3.25;;
63534;SDS011;55128;50.230;18.944;2022-09-09T18:59:52;7.25;;;3.20;;
63534;SDS011;55128;50.230;18.944;2022-09-09T19:04:54;5.43;;;3.17;;
63534;SDS011;55128;50.230;18.944;2022-09-09T19:09:55;5.70;;;3.20;;
63534;SDS011;55128;50.230;18.944;2022-09-09T19:14:55;7.57;;;4.15;;
63534;SDS011;55128;50.230;18.944;2022-09-09T19:19:56;5.60;;;3.13;;
63534;SDS011;55128;50.230;18.944;2022-09-09T19:24:57;6.28;;;2.97;;
63534;SDS011;55128;50.230;18.944;2022-09-09T19:30:02;6.50;;;3.50;;
63534;SDS011;55128;50.230;18.944;2022-09-09T19:35:03;6.78;;;3.20;;
63534;SDS011;55128;50.230;18.944;2022-09-09T19:40:05;4.38;;;3.10;;
63534;SDS011;55128;50.230;18.944;2022-09-09T19:45:07;5.82;;;3.25;;
63534;SDS011;55128;50.230;18.944;2022-09-09T19:50:09;3.22;;;2.53;;
63534;SDS011;55128;50.230;18.944;2022-09-09T19:55:10;6.03;;;3.40;;
63534;SDS011;55128;50.230;18.944;2022-09-09T20:00:11;3.55;;;3.03;;
63534;SDS011;55128;50.230;18.944;2022-09-09T20:05:12;4.50;;;2.92;;
63534;SDS011;55128;50.230;18.944;2022-09-09T20:10:12;6.10;;;2.83;;
63534;SDS011;55128;50.230;18.944;2022-09-09T20:15:13;6.90;;;4.28;;
63534;SDS011;55128;50.230;18.944;2022-09-09T20:20:14;5.63;;;2.38;;
63534;SDS011;55128;50.230;18.944;2022-09-09T20:25:14;6.20;;;2.80;;
63534;SDS011;55128;50.230;18.944;2022-09-09T20:30:15;8.73;;;4.82;;
63534;SDS011;55128;50.230;18.944;2022-09-09T20:35:15;4.53;;;2.30;;
63534;SDS011;55128;50.230;18.944;2022-09-09T20:40:16;4.85;;;2.67;;
63534;SDS011;55128;50.230;18.944;2022-09-09T20:45:18;6.82;;;2.70;;
63534;SDS011;55128;50.230;18.944;2022-09-09T20:50:18;5.18;;;2.33;;
63534;SDS011;55128;50.230;18.944;2022-09-09T20:55:19;5.60;;;2.88;;
63534;SDS011;55128;50.230;18.944;2022-09-09T21:00:20;6.32;;;3.30;;
63534;SDS011;55128;50.230;18.944;2022-09-09T21:05:20;5.90;;;3.20;;
63534;SDS011;55128;50.230;18.944;2022-09-09T21:10:21;5.10;;;2.97;;
63534;SDS011;55128;50.230;18.944;2022-09-09T21:15:21;9.32;;;3.80;;
63534;SDS011;55128;50.230;18.944;2022-09-09T21:20:23;8.93;;;3.38;;
63534;SDS011;55128;50.230;18.944;2022-09-09T21:25:25;6.53;;;3.00;;
63534;SDS011;55128;50.230;18.944;2022-09-09T21:30:26;7.15;;;2.75;;
63534;SDS011;55128;50.230;18.944;2022-09-09T21:35:28;5.13;;;2.60;;
63534;SDS011;55128;50.230;18.944;2022-09-09T21:40:37;4.60;;;3.03;;
63534;SDS011;55128;50.230;18.944;2022-09-09T21:45:39;7.65;;;4.57;;
63534;SDS011;55128;50.230;18.944;2022-09-09T21:50:44;6.07;;;3.58;;
63534;SDS011;55128;50.230;18.944;2022-09-09T21:55:46;5.25;;;3.67;;
63534;SDS011;55128;50.230;18.944;2022-09-09T22:00:47;4.72;;;3.50;;
63534;SDS011;55128;50.230;18.944;2022-09-09T22:05:48;6.75;;;4.22;;
63534;SDS011;55128;50.230;18.944;2022-09-09T22:10:49;8.10;;;3.97;;
63534;SDS011;55128;50.230;18.944;2022-09-09T22:15:50;4.88;;;3.60;;
63534;SDS011;55128;50.230;18.944;2022-09-09T22:20:50;4.63;;;3.50;;
63534;SDS011;55128;50.230;18.944;2022-09-09T22:25:51;9.93;;;4.60;;
63534;SDS011;55128;50.230;18.944;2022-09-09T22:30:54;8.25;;;4.45;;
63534;SDS011;55128;50.230;18.944;2022-09-09T22:35:54;8.20;;;4.72;;
63534;SDS011;55128;50.230;18.944;2022-09-09T22:40:55;5.63;;;4.20;;
63534;SDS011;55128;50.230;18.944;2022-09-09T22:45:57;6.95;;;4.68;;
63534;SDS011;55128;50.230;18.944;2022-09-09T22:51:09;8.60;;;6.10;;
63534;SDS011;55128;50.230;18.944;2022-09-09T22:56:13;8.17;;;5.00;;
63534;SDS011;55128;50.230;18.944;2022-09-09T23:01:17;7.30;;;4.72;;
63534;SDS011;55128;50.230;18.944;2022-09-09T23:06:21;9.10;;;5.47;;
63534;SDS011;55128;50.230;18.944;2022-09-09T23:11:24;7.00;;;4.93;;
63534;SDS011;55128;50.230;18.944;2022-09-09T23:16:31;9.43;;;5.80;;
63534;SDS011;55128;50.230;18.944;2022-09-09T23:21:39;11.50;;;5.70;;
63534;SDS011;55128;50.230;18.944;2022-09-09T23:26:40;8.55;;;5.80;;
63534;SDS011;55128;50.230;18.944;2022-09-09T23:31:44;10.77;;;5.90;;
63534;SDS011;55128;50.230;18.944;2022-09-09T23:36:44;9.05;;;6.13;;
63534;SDS011;55128;50.230;18.944;2022-09-09T23:41:47;8.80;;;6.72;;
63534;SDS011;55128;50.230;18.944;2022-09-09T23:46:49;11.23;;;6.90;;
63534;SDS011;55128;50.230;18.944;2022-09-09T23:51:50;10.25;;;7.85;;
63534;SDS011;55128;50.230;18.944;2022-09-09T23:56:50;10.88;;;7.90;;
